Terminal Aerodrome Forecast
Issued by NWS

Home | Current Version | Previous Version | Text Only | Print | Product List | Glossary On
Versions: 1 2 3 4 5 6 7 8 9 10 11 12 13 14 15 16
016
FTUS45 KVEF 252320
TAFHND
TAF
KHND 252320Z 2600/2624 31011KT P6SM SCT080 BKN110
     FM260200 25007KT P6SM FEW100
     FM260600 18006KT P6SM FEW100 FEW250
     FM261700 05006KT P6SM FEW100 BKN250=

USA.gov is the U.S. government's official web portal to all federal, state and local government web resources and services.